createdAt,value
2022-09-30T00:00:28.795Z,1.08
2022-09-30T00:03:33.130Z,0.93
2022-09-30T00:06:37.328Z,0.93
2022-09-30T00:09:41.921Z,0.82
2022-09-30T00:12:47.818Z,1.00
2022-09-30T00:15:52.458Z,1.10
2022-09-30T00:18:58.020Z,1.00
2022-09-30T00:22:02.317Z,0.82
2022-09-30T00:25:06.971Z,0.90
2022-09-30T00:28:11.795Z,0.90
2022-09-30T00:31:19.542Z,0.98
2022-09-30T00:34:24.142Z,0.80
2022-09-30T00:37:28.531Z,0.90
2022-09-30T00:40:32.700Z,0.90
2022-09-30T00:43:51.918Z,0.80
2022-09-30T00:46:57.236Z,0.80
2022-09-30T00:50:36.744Z,1.00
2022-09-30T00:53:54.951Z,0.90
2022-09-30T00:57:06.899Z,0.70
2022-09-30T01:00:11.755Z,0.90
2022-09-30T01:03:16.107Z,0.60
2022-09-30T01:06:23.486Z,0.70
2022-09-30T01:09:28.872Z,0.70
2022-09-30T01:12:33.780Z,0.90
2022-09-30T01:16:08.606Z,0.68
2022-09-30T01:19:39.058Z,0.70
2022-09-30T01:23:28.374Z,0.70
2022-09-30T01:27:05.047Z,0.60
2022-09-30T01:30:37.036Z,0.80
2022-09-30T01:34:02.318Z,0.80
2022-09-30T01:37:20.344Z,0.70
2022-09-30T01:40:31.627Z,0.75
2022-09-30T01:43:38.644Z,0.70
2022-09-30T01:47:15.172Z,0.80
2022-09-30T01:50:37.577Z,0.70
2022-09-30T01:54:39.192Z,0.75
2022-09-30T01:58:01.464Z,0.80
2022-09-30T02:01:15.099Z,0.70
2022-09-30T02:04:30.220Z,0.70
2022-09-30T02:07:50.162Z,0.93
2022-09-30T02:11:07.660Z,0.80
2022-09-30T02:14:41.389Z,0.80
2022-09-30T02:18:03.707Z,0.70
2022-09-30T02:21:10.343Z,0.70
2022-09-30T02:24:18.382Z,0.80
2022-09-30T02:27:29.424Z,0.80
2022-09-30T02:30:38.162Z,0.70
2022-09-30T02:34:02.810Z,0.73
2022-09-30T02:40:42.242Z,0.77
2022-09-30T02:43:47.235Z,0.70
2022-09-30T02:47:24.054Z,0.80
2022-09-30T02:50:41.295Z,0.90
2022-09-30T02:54:02.252Z,1.08
2022-09-30T02:57:28.808Z,0.98
2022-09-30T03:00:34.597Z,0.90
2022-09-30T03:03:43.493Z,1.10
2022-09-30T03:06:48.290Z,1.30
2022-09-30T03:09:58.738Z,1.02
2022-09-30T03:13:16.809Z,1.17
2022-09-30T03:17:04.878Z,1.00
2022-09-30T03:20:28.518Z,1.30
2022-09-30T03:24:09.693Z,1.40
2022-09-30T03:27:43.603Z,1.10
2022-09-30T03:31:45.283Z,1.30
2022-09-30T03:35:12.788Z,1.10
2022-09-30T03:38:39.509Z,1.20
2022-09-30T03:42:22.077Z,1.50
2022-09-30T03:45:39.240Z,1.60
2022-09-30T03:48:46.810Z,1.50
2022-09-30T03:51:51.798Z,1.30
2022-09-30T03:55:00.490Z,1.48
2022-09-30T03:58:04.937Z,1.40
2022-09-30T04:01:21.630Z,1.90
2022-09-30T04:04:26.106Z,1.55
2022-09-30T04:07:30.390Z,1.77
2022-09-30T04:10:35.125Z,1.65
2022-09-30T04:13:40.017Z,1.55
2022-09-30T04:16:44.571Z,1.40
2022-09-30T04:19:50.184Z,1.85
2022-09-30T04:22:59.165Z,1.77
2022-09-30T04:26:05.596Z,1.80
2022-09-30T04:29:10.039Z,1.80
2022-09-30T04:32:14.318Z,1.90
2022-09-30T04:35:18.955Z,2.03
2022-09-30T04:38:24.986Z,1.48
2022-09-30T04:41:29.733Z,1.77
2022-09-30T04:44:35.414Z,1.90
2022-09-30T04:47:44.544Z,1.55
2022-09-30T04:50:49.670Z,2.17
2022-09-30T04:53:53.736Z,1.98
2022-09-30T04:56:58.774Z,1.90
2022-09-30T05:00:05.429Z,2.20
2022-09-30T05:03:11.074Z,1.95
2022-09-30T05:06:15.715Z,1.85
2022-09-30T05:09:20.516Z,2.15
2022-09-30T05:12:26.147Z,2.17
2022-09-30T05:15:30.762Z,2.35
2022-09-30T05:18:35.999Z,2.47
2022-09-30T05:21:40.864Z,2.05
2022-09-30T05:24:45.232Z,2.05
2022-09-30T05:27:51.176Z,2.08
2022-09-30T05:31:06.196Z,1.88
2022-09-30T05:34:11.031Z,1.90
2022-09-30T05:37:15.573Z,1.77
2022-09-30T05:40:20.358Z,2.45
2022-09-30T05:43:25.291Z,1.80
2022-09-30T05:46:29.622Z,2.40
2022-09-30T05:49:35.275Z,2.15
2022-09-30T05:52:39.752Z,2.25
2022-09-30T05:55:48.457Z,2.20
2022-09-30T05:58:53.759Z,1.80
2022-09-30T06:01:58.658Z,2.17
2022-09-30T06:05:07.041Z,2.72
2022-09-30T06:08:13.628Z,1.80
2022-09-30T06:11:21.617Z,2.08
2022-09-30T06:14:28.193Z,2.00
2022-09-30T06:17:32.887Z,1.88
2022-09-30T06:20:37.613Z,2.10
2022-09-30T06:23:43.237Z,2.17
2022-09-30T06:26:47.809Z,2.28
2022-09-30T06:29:52.280Z,2.30
2022-09-30T06:32:57.778Z,2.28
2022-09-30T06:36:04.756Z,2.40
2022-09-30T06:39:13.535Z,2.40
2022-09-30T06:42:18.833Z,2.25
2022-09-30T06:45:31.324Z,2.33
2022-09-30T06:48:38.855Z,2.40
2022-09-30T06:51:43.626Z,2.50
2022-09-30T06:54:49.757Z,2.65
2022-09-30T06:57:56.086Z,2.20
2022-09-30T07:01:06.309Z,2.40
2022-09-30T07:04:11.725Z,2.60
2022-09-30T07:07:16.308Z,2.42
2022-09-30T07:10:21.408Z,2.20
2022-09-30T07:13:26.222Z,2.33
2022-09-30T07:16:32.127Z,2.65
2022-09-30T07:19:36.991Z,2.65
2022-09-30T07:22:42.211Z,2.53
2022-09-30T07:26:04.615Z,2.58
2022-09-30T07:29:09.058Z,2.35
2022-09-30T07:32:15.512Z,2.42
2022-09-30T07:35:20.734Z,2.42
2022-09-30T07:38:29.608Z,2.63
2022-09-30T07:41:37.620Z,2.42
2022-09-30T07:44:44.243Z,2.95
2022-09-30T07:47:53.550Z,2.70
2022-09-30T07:50:58.712Z,3.00
2022-09-30T07:54:11.552Z,3.22
2022-09-30T07:57:15.847Z,3.05
2022-09-30T08:03:45.039Z,3.30
2022-09-30T08:06:56.953Z,3.13
2022-09-30T08:10:01.280Z,2.95
2022-09-30T08:13:06.526Z,2.88
2022-09-30T08:16:11.304Z,3.22
2022-09-30T08:19:22.707Z,4.15
2022-09-30T08:22:28.270Z,3.17
2022-09-30T08:25:33.280Z,3.20
2022-09-30T08:28:42.362Z,3.03
2022-09-30T08:31:48.602Z,3.22
2022-09-30T08:34:56.425Z,3.20
2022-09-30T08:38:01.212Z,2.97
2022-09-30T08:41:40.449Z,3.03
2022-09-30T08:44:48.984Z,3.33
2022-09-30T08:48:22.617Z,3.08
2022-09-30T08:51:37.252Z,3.22
2022-09-30T08:54:47.801Z,3.08
2022-09-30T08:57:55.299Z,3.03
2022-09-30T09:01:25.507Z,2.55
2022-09-30T09:04:29.944Z,2.67
2022-09-30T09:07:47.834Z,2.75
2022-09-30T09:11:15.433Z,2.85
2022-09-30T09:14:26.169Z,2.75
2022-09-30T09:18:29.151Z,2.80
2022-09-30T09:22:02.358Z,2.63
2022-09-30T09:25:27.158Z,2.47
2022-09-30T09:28:37.027Z,2.58
2022-09-30T09:31:41.790Z,2.42
2022-09-30T09:34:55.531Z,2.78
2022-09-30T09:38:25.928Z,2.53
2022-09-30T09:41:45.198Z,2.28
2022-09-30T09:45:21.488Z,2.17
2022-09-30T09:48:26.790Z,1.98
2022-09-30T09:51:36.372Z,2.30
2022-09-30T09:54:56.726Z,1.98
2022-09-30T09:58:17.509Z,1.90
2022-09-30T10:01:35.073Z,1.83
2022-09-30T10:04:50.915Z,1.77
2022-09-30T10:08:16.470Z,1.75
2022-09-30T10:11:27.324Z,1.90
2022-09-30T10:14:46.344Z,2.13
2022-09-30T10:17:58.028Z,1.75
2022-09-30T10:21:09.256Z,1.73
2022-09-30T10:24:40.734Z,2.15
2022-09-30T10:28:20.242Z,1.92
2022-09-30T10:31:58.987Z,1.92
2022-09-30T10:35:22.029Z,1.98
2022-09-30T10:38:29.741Z,1.70
2022-09-30T10:41:38.292Z,1.42
2022-09-30T10:45:07.471Z,1.40
2022-09-30T10:48:22.184Z,1.40
2022-09-30T10:51:33.116Z,2.20
2022-09-30T10:54:40.616Z,1.60
2022-09-30T10:57:46.555Z,1.73
2022-09-30T11:01:24.975Z,2.10
2022-09-30T11:04:36.913Z,1.90
2022-09-30T11:07:54.823Z,2.60
2022-09-30T11:11:20.629Z,1.95
2022-09-30T11:14:42.217Z,1.90
2022-09-30T11:18:39.610Z,2.20
2022-09-30T11:21:53.286Z,2.00
2022-09-30T11:24:58.354Z,1.75
2022-09-30T11:28:27.549Z,2.08
2022-09-30T11:32:04.339Z,2.00
2022-09-30T11:35:20.528Z,2.00
2022-09-30T11:39:01.071Z,1.80
2022-09-30T11:42:18.552Z,1.77
2022-09-30T11:45:40.535Z,1.30
2022-09-30T11:49:18.951Z,1.35
2022-09-30T11:53:03.778Z,1.27
2022-09-30T11:56:51.444Z,1.25
2022-09-30T12:00:05.157Z,1.30
2022-09-30T12:04:05.320Z,1.40
2022-09-30T12:07:47.487Z,1.90
2022-09-30T12:10:57.568Z,2.50
2022-09-30T12:14:16.039Z,2.05
2022-09-30T12:17:33.918Z,2.10
2022-09-30T12:21:03.018Z,2.38
2022-09-30T12:24:19.576Z,2.83
2022-09-30T12:27:40.164Z,1.92
2022-09-30T12:30:46.805Z,2.55
2022-09-30T12:34:15.466Z,2.53
2022-09-30T12:37:34.643Z,2.15
2022-09-30T12:40:52.712Z,1.60
2022-09-30T12:44:12.544Z,1.83
2022-09-30T12:47:47.193Z,1.92
2022-09-30T12:50:57.785Z,1.52
2022-09-30T12:54:26.277Z,2.10
2022-09-30T12:57:36.954Z,2.10
2022-09-30T13:00:41.767Z,2.10
2022-09-30T13:04:18.453Z,1.52
2022-09-30T13:07:23.151Z,1.33
2022-09-30T13:10:33.734Z,0.95
2022-09-30T13:14:23.609Z,1.20
2022-09-30T13:17:30.274Z,1.10
2022-09-30T13:21:05.250Z,1.40
2022-09-30T13:24:10.334Z,0.90
2022-09-30T13:27:15.439Z,0.95
2022-09-30T13:30:20.299Z,0.90
2022-09-30T13:33:43.806Z,0.70
2022-09-30T13:36:50.982Z,0.85
2022-09-30T13:39:58.623Z,0.57
2022-09-30T13:43:04.524Z,0.65
2022-09-30T13:46:14.657Z,0.77
2022-09-30T13:49:45.751Z,0.60
2022-09-30T13:52:57.726Z,0.80
2022-09-30T13:56:09.317Z,0.52
2022-09-30T13:59:45.494Z,0.57
2022-09-30T14:03:14.025Z,0.50
2022-09-30T14:06:45.363Z,0.50
2022-09-30T14:10:09.039Z,0.47
2022-09-30T14:16:55.063Z,0.40
2022-09-30T14:20:29.377Z,0.50
2022-09-30T14:26:49.055Z,0.40
2022-09-30T14:30:19.356Z,0.55
2022-09-30T14:33:26.112Z,0.63
2022-09-30T14:36:30.988Z,0.65
2022-09-30T14:39:36.252Z,0.60
2022-09-30T14:42:42.451Z,0.50
2022-09-30T14:45:56.508Z,0.52
2022-09-30T14:49:06.816Z,0.50
2022-09-30T14:52:46.801Z,0.50
2022-09-30T14:55:51.574Z,0.70
2022-09-30T14:59:00.734Z,0.60
2022-09-30T15:02:20.224Z,0.63
2022-09-30T15:05:26.659Z,0.80
2022-09-30T15:08:31.562Z,0.60
2022-09-30T15:11:39.460Z,0.60
2022-09-30T15:14:55.751Z,0.60
2022-09-30T15:18:02.974Z,0.70
2022-09-30T15:21:15.931Z,0.60
2022-09-30T15:24:24.220Z,0.60
2022-09-30T15:27:31.282Z,0.43
2022-09-30T15:30:35.720Z,0.57
2022-09-30T15:33:39.886Z,0.50
2022-09-30T15:36:48.359Z,0.50
2022-09-30T15:40:11.226Z,0.70
2022-09-30T15:43:31.314Z,0.50
2022-09-30T15:46:39.901Z,0.60
2022-09-30T15:49:49.823Z,0.50
2022-09-30T15:52:55.685Z,0.70
2022-09-30T15:56:17.455Z,0.60
2022-09-30T15:59:23.097Z,0.80
2022-09-30T16:02:29.473Z,0.73
2022-09-30T16:05:34.465Z,0.70
2022-09-30T16:08:50.480Z,0.60
2022-09-30T16:12:22.198Z,0.60
2022-09-30T16:15:26.979Z,0.82
2022-09-30T16:18:34.191Z,0.60
2022-09-30T16:21:44.409Z,0.77
2022-09-30T16:24:49.492Z,0.65
2022-09-30T16:28:13.053Z,0.80
2022-09-30T16:31:28.543Z,0.90
2022-09-30T16:34:37.721Z,0.70
2022-09-30T16:37:44.041Z,0.75
2022-09-30T16:40:48.593Z,0.70
2022-09-30T16:43:53.435Z,0.70
2022-09-30T16:46:57.828Z,0.60
2022-09-30T16:50:02.411Z,0.82
2022-09-30T16:53:06.821Z,0.70
2022-09-30T16:56:17.308Z,0.80
2022-09-30T16:59:22.034Z,0.60
2022-09-30T17:02:27.416Z,0.65
2022-09-30T17:05:32.055Z,0.73
2022-09-30T17:08:36.533Z,0.70
2022-09-30T17:11:41.031Z,0.60
2022-09-30T17:14:45.303Z,0.80
2022-09-30T17:17:49.730Z,0.65
2022-09-30T17:20:54.524Z,0.80
2022-09-30T17:23:59.001Z,0.80
2022-09-30T17:27:04.115Z,0.80
2022-09-30T17:30:10.500Z,0.85
2022-09-30T17:33:17.720Z,0.70
2022-09-30T17:36:22.326Z,0.80
2022-09-30T17:39:27.918Z,0.90
2022-09-30T17:42:53.538Z,0.93
2022-09-30T17:46:00.374Z,0.80
2022-09-30T17:49:05.275Z,0.80
2022-09-30T17:52:10.869Z,1.05
2022-09-30T17:55:15.495Z,0.93
2022-09-30T17:58:20.533Z,0.90
2022-09-30T18:01:25.330Z,0.90
2022-09-30T18:04:29.611Z,1.00
2022-09-30T18:07:34.531Z,0.90
2022-09-30T18:10:39.263Z,1.08
2022-09-30T18:13:43.896Z,1.15
2022-09-30T18:16:48.865Z,1.20
2022-09-30T18:19:53.736Z,0.98
2022-09-30T18:22:58.251Z,1.20
2022-09-30T18:26:02.751Z,1.40
2022-09-30T18:29:07.927Z,1.00
2022-09-30T18:32:13.408Z,1.02
2022-09-30T18:35:20.758Z,1.00
2022-09-30T18:38:27.673Z,1.17
2022-09-30T18:41:33.334Z,1.20
2022-09-30T18:44:40.131Z,1.00
2022-09-30T18:47:45.689Z,1.13
2022-09-30T18:50:51.445Z,1.30
2022-09-30T18:53:58.857Z,1.38
2022-09-30T18:57:03.550Z,1.20
2022-09-30T19:00:10.979Z,1.40
2022-09-30T19:03:17.358Z,1.70
2022-09-30T19:06:22.608Z,1.95
2022-09-30T19:09:28.316Z,1.80
2022-09-30T19:12:38.015Z,2.25
2022-09-30T19:15:42.391Z,1.95
2022-09-30T19:18:47.266Z,2.20
2022-09-30T19:21:51.772Z,2.33
2022-09-30T19:24:56.516Z,3.25
2022-09-30T19:28:02.605Z,4.03
2022-09-30T19:31:15.291Z,4.82
2022-09-30T19:34:31.274Z,5.43
2022-09-30T19:37:37.705Z,6.20
2022-09-30T19:40:43.456Z,6.68
2022-09-30T19:43:51.476Z,6.03
2022-09-30T19:46:56.282Z,5.82
2022-09-30T19:50:00.974Z,4.85
2022-09-30T19:53:05.381Z,4.85
2022-09-30T19:56:23.640Z,4.43
2022-09-30T19:59:28.511Z,4.05
2022-09-30T20:02:33.264Z,3.17
2022-09-30T20:05:37.803Z,3.60
2022-09-30T20:08:49.588Z,3.25
2022-09-30T20:11:54.233Z,2.83
2022-09-30T20:15:16.917Z,2.70
2022-09-30T20:18:21.498Z,2.50
2022-09-30T20:21:26.266Z,2.30
2022-09-30T20:24:31.957Z,2.28
2022-09-30T20:27:36.560Z,1.65
2022-09-30T20:30:47.716Z,1.35
2022-09-30T20:33:59.713Z,2.03
2022-09-30T20:37:04.523Z,1.40
2022-09-30T20:40:09.852Z,1.27
2022-09-30T20:43:14.642Z,1.45
2022-09-30T20:46:22.002Z,1.48
2022-09-30T20:49:28.579Z,1.20
2022-09-30T20:52:33.856Z,1.08
2022-09-30T20:55:41.863Z,1.60
2022-09-30T20:58:46.557Z,1.40
2022-09-30T21:01:51.839Z,1.58
2022-09-30T21:04:57.643Z,1.13
2022-09-30T21:08:03.418Z,1.13
2022-09-30T21:11:07.901Z,1.40
2022-09-30T21:14:12.769Z,1.10
2022-09-30T21:17:17.562Z,1.30
2022-09-30T21:20:22.420Z,1.27
2022-09-30T21:23:28.564Z,1.20
2022-09-30T21:26:33.286Z,1.40
2022-09-30T21:29:37.768Z,1.33
2022-09-30T21:32:43.831Z,1.27
2022-09-30T21:35:48.688Z,1.20
2022-09-30T21:38:54.836Z,1.38
2022-09-30T21:41:59.642Z,1.73
2022-09-30T21:45:05.295Z,1.35
2022-09-30T21:48:12.327Z,1.55
2022-09-30T21:51:16.874Z,1.30
2022-09-30T21:54:21.527Z,1.73
2022-09-30T21:57:25.985Z,1.52
2022-09-30T22:00:30.490Z,1.50
2022-09-30T22:03:38.453Z,1.33
2022-09-30T22:06:44.390Z,1.67
2022-09-30T22:09:48.690Z,1.40
2022-09-30T22:12:53.029Z,1.50
2022-09-30T22:16:04.985Z,1.60
2022-09-30T22:19:09.268Z,1.65
2022-09-30T22:22:13.485Z,1.58
2022-09-30T22:25:20.400Z,1.40
2022-09-30T22:28:25.403Z,1.33
2022-09-30T22:31:32.316Z,1.33
2022-09-30T22:35:09.055Z,1.63
2022-09-30T22:38:14.527Z,1.27
2022-09-30T22:41:18.893Z,1.30
2022-09-30T22:44:25.728Z,1.50
2022-09-30T22:47:30.968Z,1.67
2022-09-30T22:50:35.944Z,1.50
2022-09-30T22:53:40.908Z,1.45
2022-09-30T22:56:46.235Z,1.38
2022-09-30T22:59:52.787Z,1.52
2022-09-30T23:02:57.471Z,1.67
2022-09-30T23:06:05.850Z,1.80
2022-09-30T23:09:10.424Z,1.58
2022-09-30T23:12:15.019Z,1.52
2022-09-30T23:15:19.504Z,1.30
2022-09-30T23:18:24.300Z,1.55
2022-09-30T23:21:28.853Z,1.50
2022-09-30T23:24:33.330Z,1.85
2022-09-30T23:27:38.158Z,1.48
2022-09-30T23:30:42.396Z,1.63
2022-09-30T23:33:50.132Z,1.88
2022-09-30T23:36:54.820Z,1.65
2022-09-30T23:39:59.236Z,1.23
2022-09-30T23:43:03.850Z,1.50
2022-09-30T23:46:08.963Z,1.85
2022-09-30T23:49:13.323Z,1.50
2022-09-30T23:52:17.932Z,2.22
2022-09-30T23:55:22.717Z,1.77
2022-09-30T23:58:27.604Z,1.30
